Time;durP1;ratioP1;P1;durP2;ratioP2;P2;SDS_P1;SDS_P2;PMS_P1;PMS_P2;Temp;Humidity;BMP_temperature;BMP_pressure;BME280_temperature;BME280_humidity;BME280_pressure;Samples;Min_cycle;Max_cycle;Signal;HPM_P1;HPM_P2
2022/04/15 00:01:26;;;;;;;86.40;32.60;;;;;;;;;;4995171;28;20665;-81
2022/04/15 00:03:52;;;;;;;87.17;34.83;;;;;;;;;;4994157;28;20193;-81
2022/04/15 00:06:20;;;;;;;81.80;34.77;;;7.60;99.90;;;;;;4995079;28;20178;-81
2022/04/15 00:08:47;;;;;;;74.13;29.93;;;;;;;;;;4994194;28;20185;-81
2022/04/15 00:11:13;;;;;;;69.33;27.90;;;;;;;;;;4993272;28;20222;-82
2022/04/15 00:13:41;;;;;;;73.23;29.93;;;;;;;;;;4993522;28;20201;-81
2022/04/15 00:16:08;;;;;;;101.73;38.73;;;7.70;99.90;;;;;;4994825;28;20226;-80
2022/04/15 00:18:34;;;;;;;108.30;40.23;;;;;;;;;;4995183;28;20185;-81
2022/04/15 00:21:01;;;;;;;101.73;39.77;;;;;;;;;;4993866;28;20181;-81
2022/04/15 00:23:27;;;;;;;93.50;37.63;;;;;;;;;;4995079;28;20188;-81
2022/04/15 00:25:54;;;;;;;94.20;35.53;;;;;;;;;;5001163;28;20174;-81
2022/04/15 00:28:22;;;;;;;94.13;36.90;;;7.80;99.90;;;;;;5009931;28;20177;-81
2022/04/15 00:30:48;;;;;;;82.43;33.30;;;;;;;;;;4997140;28;20202;-81
2022/04/15 00:33:14;;;;;;;87.90;34.00;;;;;;;;;;4993308;28;20606;-81
2022/04/15 00:35:40;;;;;;;79.67;33.93;;;;;;;;;;4994875;28;20189;-81
2022/04/15 00:38:06;;;;;;;90.97;33.13;;;;;;;;;;4994722;28;20185;-80
2022/04/15 00:40:32;;;;;;;83.60;33.03;;;;;;;;;;4994564;28;20647;-81
2022/04/15 00:42:58;;;;;;;83.40;33.73;;;;;;;;;;4994733;28;20185;-80
2022/04/15 00:45:24;;;;;;;73.27;29.87;;;;;;;;;;4992922;28;20189;-81
2022/04/15 00:47:51;;;;;;;71.47;28.63;;;7.90;99.90;;;;;;4994551;28;20178;-81
2022/04/15 00:50:25;;;;;;;65.10;27.27;;;8.00;99.90;;;;;;4994075;28;20646;-81
2022/04/15 00:52:55;;;;;;;73.37;28.47;;;8.00;99.90;;;;;;4994520;28;20608;-81
2022/04/15 00:55:22;;;;;;;70.67;30.03;;;8.00;99.90;;;;;;4992916;28;20264;-81
2022/04/15 00:57:56;;;;;;;68.50;29.40;;;8.30;99.90;;;;;;4994436;28;20180;-81
2022/04/15 01:00:22;;;;;;;76.10;32.70;;;8.10;99.90;;;;;;4994065;28;20217;-81
2022/04/15 01:02:49;;;;;;;78.37;32.97;;;;;;;;;;4994383;28;20181;-81
2022/04/15 01:05:15;;;;;;;83.20;33.17;;;8.10;99.90;;;;;;5001296;28;20174;-80
2022/04/15 01:07:49;;;;;;;80.57;35.03;;;8.10;99.90;;;;;;4981138;28;20188;-82
2022/04/15 01:10:15;;;;;;;72.90;33.10;;;;;;;;;;4976558;28;20193;-81
2022/04/15 01:12:45;;;;;;;70.10;31.27;;;8.00;99.90;;;;;;4994091;28;20192;-82
2022/04/15 01:15:13;;;;;;;57.03;26.60;;;8.10;99.90;;;;;;4993902;28;20253;-81
2022/04/15 01:17:39;;;;;;;61.90;27.37;;;;;;;;;;4993983;28;20277;-82
2022/04/15 01:20:08;;;;;;;61.07;27.23;;;8.10;99.90;;;;;;4992892;28;20547;-81
2022/04/15 01:22:41;;;;;;;59.73;24.37;;;7.90;99.90;;;;;;4993983;28;20182;-81
2022/04/15 01:25:09;;;;;;;59.37;23.40;;;8.20;99.90;;;;;;4994343;28;20212;-82
2022/04/15 01:27:40;;;;;;;51.73;24.47;;;8.20;99.90;;;;;;4993923;28;20182;-82
2022/04/15 01:30:10;;;;;;;52.07;23.73;;;8.00;99.90;;;;;;4992750;28;20639;-82
2022/04/15 01:32:36;;;;;;;55.83;22.77;;;;;;;;;;4993795;28;20268;-81
2022/04/15 01:35:02;;;;;;;48.50;22.97;;;;;;;;;;4993639;28;20178;-81
2022/04/15 01:37:30;;;;;;;47.27;22.90;;;8.10;99.90;;;;;;4992888;28;20213;-82
2022/04/15 01:39:57;;;;;;;43.97;21.73;;;;;;;;;;4994124;28;20190;-81
2022/04/15 01:42:23;;;;;;;44.03;21.50;;;;;;;;;;4994034;28;20702;-82
2022/04/15 01:44:49;;;;;;;42.13;21.10;;;;;;;;;;4994164;28;20689;-81
2022/04/15 01:47:18;;;;;;;42.83;20.47;;;;;;;;;;4993541;28;20204;-81
2022/04/15 01:49:44;;;;;;;40.83;19.67;;;7.80;99.90;;;;;;4976703;28;20205;-82
2022/04/15 01:52:10;;;;;;;42.20;18.60;;;;;;;;;;4993726;28;20688;-81
2022/04/15 01:54:36;;;;;;;42.50;20.03;;;;;;;;;;4993310;28;20214;-81
2022/04/15 01:57:02;;;;;;;35.10;18.10;;;;;;;;;;4993498;28;20200;-81
2022/04/15 01:59:28;;;;;;;35.37;17.90;;;;;;;;;;4992501;28;20186;-81
2022/04/15 02:01:54;;;;;;;35.77;18.23;;;;;;;;;;4993515;28;20276;-80
2022/04/15 02:04:25;;;;;;;35.10;17.50;;;8.40;99.90;;;;;;4993758;28;20252;-81
2022/04/15 02:06:51;;;;;;;38.73;18.83;;;;;;;;;;4993784;28;20187;-81
2022/04/15 02:09:17;;;;;;;43.33;20.93;;;;;;;;;;4992393;28;20178;-81
2022/04/15 02:11:43;;;;;;;46.87;22.13;;;;;;;;;;4993422;28;20210;-81
2022/04/15 02:14:09;;;;;;;55.73;22.97;;;;;;;;;;4993401;28;20190;-81
2022/04/15 02:16:36;;;;;;;58.10;23.93;;;8.20;99.90;;;;;;4992451;28;20229;-81
2022/04/15 02:19:02;;;;;;;49.67;22.63;;;;;;;;;;4996109;28;20235;-81
2022/04/15 02:21:28;;;;;;;47.10;20.27;;;;;;;;;;4995872;28;20546;-82
2022/04/15 02:23:54;;;;;;;49.03;20.33;;;;;;;;;;4979742;28;20215;-81
2022/04/15 02:26:20;;;;;;;46.00;17.33;;;;;;;;;;4995632;28;20269;-81
2022/04/15 02:28:46;;;;;;;46.03;20.83;;;;;;;;;;4995667;28;20193;-81
2022/04/15 02:31:12;;;;;;;45.97;19.67;;;8.10;99.90;;;;;;4997129;28;20206;-81
2022/04/15 02:33:38;;;;;;;41.70;18.40;;;;;;;;;;4995426;28;20190;-81
2022/04/15 02:36:04;;;;;;;33.57;14.93;;;8.10;99.90;;;;;;4997246;28;20182;-81
2022/04/15 02:38:30;;;;;;;28.17;13.30;;;;;;;;;;4996820;28;20643;-82
2022/04/15 02:40:56;;;;;;;29.90;15.83;;;;;;;;;;4996787;28;20178;-81
2022/04/15 02:43:25;;;;;;;31.10;13.43;;;8.30;99.90;;;;;;4995484;28;20189;-81
2022/04/15 02:45:51;;;;;;;37.03;16.23;;;8.30;99.90;;;;;;4979508;28;20601;-81
2022/04/15 02:48:18;;;;;;;27.17;13.27;;;;;;;;;;4996718;28;20186;-81
2022/04/15 02:50:45;;;;;;;36.20;15.97;;;8.30;99.90;;;;;;4996444;28;20710;-82
2022/04/15 02:53:11;;;;;;;30.00;15.00;;;;;;;;;;4995089;28;20276;-82
2022/04/15 02:55:37;;;;;;;38.23;15.60;;;;;;;;;;4996505;28;20182;-81
2022/04/15 02:58:03;;;;;;;30.50;14.60;;;7.90;99.90;;;;;;4996383;28;20189;-81
2022/04/15 03:00:29;;;;;;;22.50;12.57;;;8.50;99.90;;;;;;4979850;28;20200;-81
2022/04/15 03:02:55;;;;;;;29.10;14.00;;;;;;;;;;5002271;28;20635;-81
2022/04/15 03:05:22;;;;;;;35.63;16.13;;;;;;;;;;4997243;28;20213;-81
2022/04/15 03:07:48;;;;;;;41.93;16.23;;;;;;;;;;4996454;28;20232;-81
2022/04/15 03:10:13;;;;;;;27.40;14.83;;;8.40;99.90;;;;;;4995142;28;20186;-82
2022/04/15 03:12:41;;;;;;;34.23;15.37;;;7.70;99.90;;;;;;4995085;28;20196;-81
2022/04/15 03:15:11;;;;;;;35.47;16.20;;;8.30;99.90;;;;;;4994632;28;20234;-81
2022/04/15 03:17:37;;;;;;;49.37;19.47;;;;;;;;;;4996137;28;20184;-82
2022/04/15 03:20:04;;;;;;;39.20;16.60;;;8.00;99.90;;;;;;4996394;28;20181;-81
2022/04/15 03:22:38;;;;;;;33.77;15.50;;;7.90;99.90;;;;;;4995042;28;20557;-81
2022/04/15 03:25:05;;;;;;;50.13;22.23;;;8.10;99.90;;;;;;4996106;28;20235;-81
2022/04/15 03:27:31;;;;;;;35.07;17.13;;;;;;;;;;4996129;28;20185;-85
2022/04/15 03:29:58;;;;;;;30.93;13.13;;;;;;;;;;5001901;28;20194;-82
2022/04/15 03:32:25;;;;;;;38.60;15.83;;;7.80;99.90;;;;;;5023134;28;20217;-80
2022/04/15 03:34:55;;;;;;;30.57;14.40;;;7.50;99.90;;;;;;5001269;28;20188;-82
2022/04/15 03:37:21;;;;;;;32.53;14.57;;;;;;;;;;5005149;28;20252;-81
2022/04/15 03:39:47;;;;;;;31.83;15.13;;;;;;;;;;5010579;28;20665;-81
2022/04/15 03:42:13;;;;;;;29.87;14.77;;;;;;;;;;5014620;28;20212;-80
2022/04/15 03:44:39;;;;;;;27.37;13.63;;;;;;;;;;4996949;28;20185;-80
2022/04/15 03:47:06;;;;;;;32.13;14.97;;;7.60;99.90;;;;;;5012795;28;20177;-80
2022/04/15 03:49:32;;;;;;;38.80;16.57;;;;;;;;;;5013774;28;20677;-80
2022/04/15 03:51:58;;;;;;;33.63;15.80;;;;;;;;;;5012360;28;20211;-79
2022/04/15 03:54:24;;;;;;;35.27;16.20;;;;;;;;;;5010683;28;20193;-81
2022/04/15 03:56:50;;;;;;;44.77;16.73;;;;;;;;;;5012234;28;20187;-80
2022/04/15 03:59:16;;;;;;;36.70;16.27;;;;;;;;;;5011762;28;20188;-80
2022/04/15 04:01:42;;;;;;;33.60;16.43;;;;;;;;;;5012395;28;20189;-79
2022/04/15 04:04:09;;;;;;;38.07;17.73;;;;;;;;;;5007409;28;20189;-86
2022/04/15 04:06:35;;;;;;;57.20;21.23;;;;;;;;;;5015608;28;20181;-79
2022/04/15 04:09:01;;;;;;;45.33;20.40;;;;;;;;;;4991994;28;20186;-85
2022/04/15 04:11:27;;;;;;;39.43;19.23;;;;;;;;;;5011471;28;20209;-80
2022/04/15 04:13:53;;;;;;;36.90;18.30;;;;;;;;;;5011047;28;20197;-79
2022/04/15 04:16:19;;;;;;;42.57;17.67;;;;;;;;;;5015616;28;20251;-81
2022/04/15 04:18:46;;;;;;;38.33;16.13;;;7.90;99.90;;;;;;5013930;28;20203;-80
2022/04/15 04:21:12;;;;;;;35.30;16.53;;;;;;;;;;4998520;28;20193;-82
2022/04/15 04:23:39;;;;;;;34.50;15.80;;;;;;;;;;5005790;28;20955;-81
2022/04/15 04:26:05;;;;;;;37.73;16.03;;;;;;;;;;5003646;28;20177;-82
2022/04/15 04:28:32;;;;;;;35.50;15.17;;;8.50;99.90;;;;;;5006332;28;20284;-81
2022/04/15 04:30:58;;;;;;;24.77;14.13;;;;;;;;;;5001888;28;20197;-81
2022/04/15 04:33:24;;;;;;;30.87;15.10;;;;;;;;;;5004169;28;20194;-82
2022/04/15 04:35:50;;;;;;;25.80;13.13;;;8.80;99.90;;;;;;5001476;28;20264;-81
2022/04/15 04:38:16;;;;;;;26.87;12.83;;;;;;;;;;4999444;28;20177;-82
2022/04/15 04:40:43;;;;;;;34.50;12.67;;;;;;;;;;5006016;28;20656;-82
2022/04/15 04:43:09;;;;;;;27.23;11.67;;;9.10;99.90;;;;;;5003977;28;20293;-91
2022/04/15 04:45:36;;;;;;;25.20;11.83;;;9.70;99.90;;;;;;5000846;28;20663;-80
2022/04/15 04:48:03;;;;;;;24.37;12.03;;;9.40;99.90;;;;;;5007325;28;20185;-80
2022/04/15 04:50:30;;;;;;;20.63;11.27;;;9.10;99.90;;;;;;4974137;28;20267;-81
2022/04/15 04:52:56;;;;;;;25.47;12.53;;;9.50;99.90;;;;;;4996771;28;20243;-81
2022/04/15 04:55:21;;;;;;;22.87;11.97;;;9.80;99.90;;;;;;5008272;28;20173;-83
2022/04/15 04:57:47;;;;;;;26.37;13.77;;;9.70;99.90;;;;;;5010286;28;20182;-80
2022/04/15 05:00:15;;;;;;;24.67;13.03;;;9.50;99.90;;;;;;5007348;28;20206;-79
2022/04/15 05:02:42;;;;;;;22.33;12.43;;;;;;;;;;5003144;28;20178;-79
2022/04/15 05:05:09;;;;;;;25.87;12.67;;;9.70;99.90;;;;;;5006398;28;20593;-80
2022/04/15 05:07:35;;;;;;;35.93;13.73;;;;;;;;;;4990279;28;20651;-81
2022/04/15 05:10:01;;;;;;;26.50;13.00;;;;;;;;;;4986654;28;20627;-79
2022/04/15 05:12:27;;;;;;;25.60;12.20;;;9.90;99.90;;;;;;4997854;28;20209;-79
2022/04/15 05:14:53;;;;;;;30.13;13.50;;;9.90;99.90;;;;;;4999497;28;20190;-81
2022/04/15 05:17:19;;;;;;;28.57;13.70;;;9.80;99.90;;;;;;5000180;28;20350;-80
2022/04/15 05:19:45;;;;;;;26.87;14.13;;;;;;;;;;4992746;28;20201;-85
2022/04/15 05:22:12;;;;;;;25.83;13.63;;;10.40;99.90;;;;;;5007300;28;20189;-81
2022/04/15 05:24:38;;;;;;;26.33;13.47;;;10.30;99.90;;;;;;5002278;28;20192;-81
2022/04/15 05:27:05;;;;;;;28.83;14.00;;;10.70;99.90;;;;;;4993332;28;20204;-82
2022/04/15 05:29:31;;;;;;;27.55;14.25;;;11.00;99.90;;;;;;4995292;28;20185;-80
2022/04/15 05:31:57;;;;;;;28.43;14.83;;;;;;;;;;4998081;28;20212;-81
2022/04/15 05:34:23;;;;;;;29.90;14.52;;;10.90;99.90;;;;;;4976535;28;20201;-81
2022/04/15 05:36:49;;;;;;;29.63;15.20;;;11.40;99.90;;;;;;4992317;28;20448;-81
2022/04/15 05:39:15;;;;;;;33.78;15.30;;;;;;;;;;4993496;28;20640;-81
2022/04/15 05:41:40;;;;;;;30.75;16.15;;;11.40;99.90;;;;;;4976617;28;20248;-82
2022/04/15 05:44:08;;;;;;;30.95;15.60;;;;;;;;;;4997431;28;20192;-82
2022/04/15 05:46:37;;;;;;;33.50;15.23;;;11.60;99.90;;;;;;5007455;28;20182;-83
2022/04/15 05:49:04;;;;;;;36.15;17.33;;;12.00;99.90;;;;;;5010420;28;20669;-82
2022/04/15 05:51:30;;;;;;;37.90;18.55;;;12.20;99.90;;;;;;4984101;28;20217;-82
2022/04/15 05:53:56;;;;;;;32.90;17.92;;;12.20;99.90;;;;;;5009368;28;20595;-81
2022/04/15 05:56:22;;;;;;;33.83;19.52;;;;;;;;;;4996470;28;20215;-82
2022/04/15 05:58:47;;;;;;;40.15;21.60;;;12.20;99.90;;;;;;5013876;28;20514;-83
2022/04/15 06:01:13;;;;;;;32.50;18.52;;;12.20;99.90;;;;;;4987768;28;20245;-82
2022/04/15 06:03:39;;;;;;;38.38;20.70;;;;;;;;;;4992835;28;20239;-82
2022/04/15 06:06:05;;;;;;;37.40;20.95;;;12.10;99.90;;;;;;5003106;28;20188;-82
2022/04/15 06:08:31;;;;;;;30.08;18.70;;;12.20;99.90;;;;;;5016965;28;20268;-81
2022/04/15 06:10:58;;;;;;;38.40;18.95;;;12.00;99.90;;;;;;5002948;28;20300;-81
2022/04/15 06:13:25;;;;;;;31.98;18.08;;;11.90;99.90;;;;;;5017795;28;20190;-83
2022/04/15 06:15:56;;;;;;;34.03;18.60;;;12.20;99.90;;;;;;5015437;28;20240;-88
2022/04/15 06:18:39;;;;;;;35.40;20.15;;;;;;;;;;5066372;27;1261728;-81
2022/04/15 06:21:05;;;;;;;38.70;19.33;;;12.20;99.90;;;;;;5089957;28;20229;-82
2022/04/15 06:23:31;;;;;;;40.17;19.92;;;;;;;;;;5090789;28;20202;-85
2022/04/15 06:25:57;;;;;;;36.45;18.63;;;12.30;99.90;;;;;;5090429;28;20214;-82
2022/04/15 06:28:23;;;;;;;32.13;17.45;;;;;;;;;;5091866;28;20640;-81
2022/04/15 06:30:49;;;;;;;36.83;18.80;;;12.00;99.90;;;;;;5090241;28;20178;-81
2022/04/15 06:33:21;;;;;;;35.88;18.48;;;12.80;99.90;;;;;;5091867;28;20190;-82
2022/04/15 06:35:47;;;;;;;33.88;17.02;;;12.10;99.90;;;;;;5091179;28;20635;-80
2022/04/15 06:38:13;;;;;;;42.92;17.45;;;12.30;99.90;;;;;;5089592;28;20613;-82
2022/04/15 06:40:40;;;;;;;30.88;16.52;;;;;;;;;;5093743;28;20262;-82
2022/04/15 06:43:06;;;;;;;31.20;17.50;;;12.70;99.90;;;;;;5089861;28;20178;-81
2022/04/15 06:45:32;;;;;;;31.38;17.60;;;12.50;99.90;;;;;;5090406;28;20175;-81
2022/04/15 06:47:58;;;;;;;35.20;17.45;;;12.90;99.90;;;;;;5088954;28;20273;-82
2022/04/15 06:50:24;;;;;;;29.15;18.35;;;;;;;;;;5068946;28;20211;-82
2022/04/15 06:52:50;;;;;;;28.95;16.63;;;12.60;99.90;;;;;;5074686;28;20167;-82
2022/04/15 06:55:16;;;;;;;29.52;17.48;;;12.50;99.90;;;;;;5089149;28;20373;-82
2022/04/15 06:57:42;;;;;;;34.58;17.38;;;;;;;;;;5089756;28;20203;-81
2022/04/15 07:00:11;;;;;;;27.13;16.38;;;12.60;99.90;;;;;;5090738;28;20167;-81
2022/04/15 07:02:37;;;;;;;43.47;17.48;;;13.00;99.90;;;;;;5089018;28;20205;-83
2022/04/15 07:05:05;;;;;;;29.33;16.63;;;12.40;99.90;;;;;;5089837;28;20624;-83
2022/04/15 07:07:31;;;;;;;31.83;17.67;;;12.40;99.90;;;;;;5089877;28;20265;-81
2022/04/15 07:10:18;;;;;;;34.30;18.33;;;12.60;99.90;;;;;;5090497;28;20297;-81
2022/04/15 07:12:44;;;;;;;37.10;16.58;;;;;;;;;;5090554;28;20206;-82
2022/04/15 07:15:09;;;;;;;31.02;15.82;;;12.90;99.90;;;;;;5090346;28;20178;-83
2022/04/15 07:17:35;;;;;;;25.48;14.88;;;;;;;;;;5096057;28;20234;-81
2022/04/15 07:27:04;;;;;;;30.35;16.58;;;13.00;99.90;;;;;;5110500;28;20174;-82
2022/04/15 07:29:30;;;;;;;26.45;15.27;;;13.10;99.90;;;;;;5083419;28;20274;-82
2022/04/15 07:31:57;;;;;;;31.52;14.88;;;13.40;99.90;;;;;;5078800;28;20182;-81
2022/04/15 07:34:23;;;;;;;29.20;14.85;;;13.80;99.90;;;;;;5098031;28;20225;-81
2022/04/15 07:36:53;;;;;;;32.28;15.75;;;13.40;99.90;;;;;;5065861;28;20561;-79
2022/04/15 07:39:20;;;;;;;31.90;16.13;;;13.50;99.90;;;;;;5102833;28;20185;-81
2022/04/15 07:41:45;;;;;;;27.30;14.93;;;13.80;99.90;;;;;;5113822;28;20174;-81
2022/04/15 07:44:12;;;;;;;26.17;15.23;;;13.60;99.90;;;;;;5084370;28;20187;-81
2022/04/15 07:46:38;;;;;;;25.60;14.43;;;13.80;99.90;;;;;;5098393;28;20175;-82
2022/04/15 07:49:42;;;;;;;28.08;15.52;;;13.80;99.90;;;;;;5079042;28;20650;-82
2022/04/15 07:52:08;;;;;;;28.05;14.80;;;14.00;99.90;;;;;;5098097;28;20174;-82
2022/04/15 07:54:34;;;;;;;29.67;14.82;;;14.00;99.90;;;;;;5078900;28;20192;-82
2022/04/15 07:57:00;;;;;;;31.70;16.75;;;14.00;99.90;;;;;;5061440;28;20210;-82
2022/04/15 07:59:26;;;;;;;28.50;15.90;;;;;;;;;;5078831;28;20183;-82
2022/04/15 08:01:53;;;;;;;24.65;16.20;;;13.90;99.90;;;;;;5097745;28;20189;-83
2022/04/15 08:04:19;;;;;;;22.30;14.43;;;14.50;99.90;;;;;;5078650;28;20194;-82
2022/04/15 08:06:45;;;;;;;25.58;14.82;;;;;;;;;;5081766;28;20320;-83
2022/04/15 08:09:10;;;;;;;24.23;14.20;;;14.10;99.90;;;;;;5097298;28;20174;-83
2022/04/15 08:11:36;;;;;;;26.40;14.35;;;;;;;;;;5078734;28;20201;-82
2022/04/15 08:14:02;;;;;;;25.65;14.80;;;13.50;99.90;;;;;;5064144;28;20218;-83
2022/04/15 08:16:28;;;;;;;27.85;16.00;;;13.60;99.90;;;;;;5096384;28;20257;-83
2022/04/15 08:18:56;;;;;;;24.95;15.93;;;13.30;99.90;;;;;;5057315;28;20269;-82
2022/04/15 08:21:23;;;;;;;28.40;16.40;;;13.10;99.90;;;;;;5074424;28;20186;-82
2022/04/15 08:23:49;;;;;;;29.05;16.77;;;13.50;99.90;;;;;;5075455;28;20616;-82
2022/04/15 08:26:15;;;;;;;36.45;22.83;;;13.10;99.90;;;;;;5075597;28;20247;-82
2022/04/15 08:28:41;;;;;;;37.08;24.02;;;13.40;99.90;;;;;;5075393;28;20186;-81
2022/04/15 08:31:08;;;;;;;31.27;18.55;;;13.00;99.90;;;;;;5074119;28;20197;-82
2022/04/15 08:33:35;;;;;;;28.05;16.70;;;12.90;99.90;;;;;;5075043;28;20179;-82
2022/04/15 08:36:01;;;;;;;26.65;17.58;;;12.50;99.90;;;;;;5073724;28;20186;-82
2022/04/15 08:38:27;;;;;;;24.35;13.95;;;;;;;;;;5074692;28;20211;-82
2022/04/15 08:40:56;;;;;;;31.60;20.08;;;12.70;99.90;;;;;;5074117;28;20192;-81
2022/04/15 08:43:24;;;;;;;28.40;18.85;;;12.50;99.90;;;;;;5074490;28;20554;-82
2022/04/15 08:45:50;;;;;;;28.58;18.00;;;12.20;99.90;;;;;;5074646;28;20703;-82
2022/04/15 08:48:16;;;;;;;28.40;17.88;;;;;;;;;;5074921;28;20237;-82
2022/04/15 08:50:42;;;;;;;27.90;18.88;;;11.10;99.90;;;;;;5057713;28;20179;-81
2022/04/15 08:53:08;;;;;;;27.50;18.15;;;11.30;99.90;;;;;;5074000;28;20191;-80
2022/04/15 08:55:35;;;;;;;28.42;18.55;;;11.20;99.90;;;;;;5072985;28;20178;-84
2022/04/15 08:58:01;;;;;;;35.00;22.48;;;10.90;99.90;;;;;;5073015;28;20242;-81
2022/04/15 09:00:27;;;;;;;35.55;22.92;;;;;;;;;;5074163;28;20272;-81
2022/04/15 09:02:54;;;;;;;34.05;20.98;;;10.90;99.90;;;;;;5067600;28;20183;-82
2022/04/15 09:05:59;;;;;;;34.10;20.20;;;10.80;99.90;;;;;;5073856;28;20176;-81
2022/04/15 09:08:25;;;;;;;32.03;21.20;;;;;;;;;;5073834;28;20190;-85
2022/04/15 09:10:56;;;;;;;34.70;20.13;;;11.00;99.90;;;;;;5073847;28;20194;-81
2022/04/15 09:13:23;;;;;;;28.45;20.27;;;10.80;99.90;;;;;;5073906;28;20242;-82
2022/04/15 09:15:50;;;;;;;26.50;18.15;;;10.70;99.90;;;;;;5073724;28;20190;-84
2022/04/15 09:18:35;;;;;;;27.35;17.52;;;10.70;99.90;;;;;;5083556;28;20234;-83
2022/04/15 09:21:21;;;;;;;22.83;15.80;;;10.60;99.90;;;;;;5094244;28;20646;-82
2022/04/15 09:23:55;;;;;;;22.02;14.82;;;10.50;99.90;;;;;;5076370;28;20238;-82
2022/04/15 09:26:21;;;;;;;22.25;14.88;;;10.90;99.90;;;;;;5058986;28;20186;-83
2022/04/15 09:28:48;;;;;;;23.25;15.43;;;10.70;99.90;;;;;;5094088;28;20369;-82
2022/04/15 09:31:15;;;;;;;21.20;14.98;;;10.70;99.90;;;;;;5075656;28;20167;-82
2022/04/15 09:33:52;;;;;;;21.17;14.55;;;10.40;99.90;;;;;;5075332;28;20186;-82
2022/04/15 09:36:25;;;;;;;19.00;13.63;;;11.00;99.90;;;;;;5094590;28;20174;-82
2022/04/15 09:39:00;;;;;;;18.63;14.50;;;10.80;99.90;;;;;;5059439;28;20190;-82
2022/04/15 09:41:27;;;;;;;20.40;14.73;;;11.00;99.90;;;;;;5098767;28;20181;-81
2022/04/15 09:44:00;;;;;;;20.02;13.93;;;10.70;99.90;;;;;;5094958;28;20182;-80
2022/04/15 09:46:27;;;;;;;23.55;15.43;;;11.00;99.90;;;;;;5093735;28;20212;-82
2022/04/15 09:49:10;;;;;;;21.10;14.40;;;10.90;99.90;;;;;;5076189;28;20244;-81
2022/04/15 09:51:43;;;;;;;19.83;13.75;;;10.70;99.90;;;;;;5093870;28;20188;-82
2022/04/15 09:57:16;;;;;;;20.73;15.10;;;10.80;99.90;;;;;;5034443;28;20214;-82
2022/04/15 10:06:31;;;;;;;25.98;18.10;;;10.70;99.90;;;;;;5094077;28;20215;-81
2022/04/15 10:12:41;;;;;;;27.02;18.75;;;10.60;99.90;;;;;;5093808;28;20188;-82
2022/04/15 10:15:12;;;;;;;27.33;18.17;;;10.70;99.90;;;;;;5075989;28;20181;-81
2022/04/15 10:18:00;;;;;;;29.17;20.57;;;10.50;99.90;;;;;;5101658;28;20225;-81
2022/04/15 10:20:28;;;;;;;31.47;21.87;;;10.70;99.90;;;;;;5076877;28;20179;-81
2022/04/15 10:22:59;;;;;;;28.02;20.60;;;10.80;99.90;;;;;;5061573;28;20178;-82
2022/04/15 10:25:25;;;;;;;29.90;21.45;;;11.10;99.90;;;;;;5093998;28;20295;-81
2022/04/15 10:27:51;;;;;;;31.83;22.98;;;;;;;;;;5094295;28;20231;-83
2022/04/15 10:30:19;;;;;;;33.63;22.67;;;11.10;99.90;;;;;;5093577;28;20341;-82
2022/04/15 10:32:53;;;;;;;40.80;23.90;;;11.00;99.90;;;;;;5093660;28;20163;-80
2022/04/15 10:35:21;;;;;;;36.35;23.70;;;10.90;99.90;;;;;;5093615;28;20193;-81
2022/04/15 10:37:53;;;;;;;33.17;23.10;;;10.80;99.90;;;;;;5075090;28;20720;-82
2022/04/15 10:40:31;;;;;;;37.63;24.13;;;11.10;99.90;;;;;;5075330;28;20181;-81
2022/04/15 10:43:04;;;;;;;35.95;24.35;;;11.00;99.90;;;;;;5074827;28;20175;-81
2022/04/15 10:45:39;;;;;;;37.63;23.17;;;11.20;99.90;;;;;;5076547;28;20262;-81
2022/04/15 10:48:05;;;;;;;36.42;23.80;;;11.20;99.90;;;;;;5075903;28;20193;-82
2022/04/15 10:50:34;;;;;;;38.33;27.48;;;11.50;99.90;;;;;;5078909;28;20182;-82
2022/04/15 10:53:20;;;;;;;37.63;23.80;;;11.80;99.90;;;;;;5079169;28;20512;-82
2022/04/15 10:55:54;;;;;;;35.05;23.15;;;11.60;99.90;;;;;;5076152;28;20171;-82
2022/04/15 10:58:21;;;;;;;35.53;23.58;;;11.70;99.90;;;;;;5075410;28;20198;-82
2022/04/15 11:01:19;;;;;;;32.55;21.25;;;11.50;99.90;;;;;;5093810;28;20182;-81
2022/04/15 11:04:04;;;;;;;27.27;20.15;;;11.80;99.90;;;;;;5029131;28;20206;-82
2022/04/15 11:06:30;;;;;;;29.90;19.75;;;11.70;99.90;;;;;;5076667;28;20193;-82
2022/04/15 11:08:56;;;;;;;26.70;19.70;;;;;;;;;;5076221;28;20760;-82
2022/04/15 11:11:42;;;;;;;25.67;18.88;;;11.80;99.90;;;;;;5061655;28;20176;-82
2022/04/15 11:14:13;;;;;;;23.55;17.65;;;;;;;;;;5083274;28;20172;-83
2022/04/15 11:16:53;;;;;;;24.35;17.83;;;11.90;99.90;;;;;;5105866;28;20198;-81
2022/04/15 11:19:23;;;;;;;23.73;16.13;;;12.30;99.90;;;;;;5086810;28;20307;-84
2022/04/15 11:21:53;;;;;;;23.85;15.98;;;12.20;99.90;;;;;;5104780;28;20170;-80
2022/04/15 11:24:32;;;;;;;23.15;15.60;;;12.70;99.90;;;;;;5083421;28;20177;-83
2022/04/15 11:27:03;;;;;;;21.40;16.17;;;12.50;99.90;;;;;;5096817;28;20181;-82
2022/04/15 11:29:34;;;;;;;20.02;13.57;;;12.80;99.90;;;;;;5062110;28;20182;-81
2022/04/15 11:32:04;;;;;;;20.52;14.20;;;12.80;99.90;;;;;;5078602;28;20209;-83
2022/04/15 11:34:30;;;;;;;19.65;15.40;;;12.50;99.90;;;;;;5096590;28;20177;-82
2022/04/15 11:37:04;;;;;;;20.60;14.60;;;12.60;99.90;;;;;;5059971;28;20210;-81
2022/04/15 11:39:35;;;;;;;18.85;13.73;;;12.40;99.90;;;;;;5076191;28;20166;-80
2022/04/15 11:42:05;;;;;;;24.20;17.00;;;12.90;99.90;;;;;;5088657;28;20174;-82
2022/04/15 11:44:32;;;;;;;23.35;16.77;;;12.50;99.90;;;;;;5095906;28;20182;-82
2022/04/15 11:47:20;;;;;;;22.45;16.05;;;12.50;99.90;;;;;;5074481;28;20186;-82
2022/04/15 11:49:46;;;;;;;20.95;15.55;;;12.60;99.90;;;;;;5094656;28;20202;-82
2022/04/15 11:52:26;;;;;;;18.23;13.85;;;12.60;99.90;;;;;;5097877;28;20205;-82
2022/04/15 11:54:52;;;;;;;22.23;15.45;;;12.70;99.90;;;;;;5095494;28;20631;-81
2022/04/15 11:57:18;;;;;;;21.42;15.30;;;13.10;99.90;;;;;;5095980;28;20687;-81
2022/04/15 11:59:46;;;;;;;27.27;15.40;;;12.70;99.90;;;;;;5077140;28;20174;-81
2022/04/15 12:02:14;;;;;;;19.10;14.90;;;13.00;99.90;;;;;;5095469;28;20186;-81
2022/04/15 12:04:54;;;;;;;20.88;14.68;;;13.10;99.90;;;;;;5095780;28;20192;-82
2022/04/15 12:07:21;;;;;;;23.33;15.85;;;13.00;99.90;;;;;;5077538;28;20193;-81
2022/04/15 12:09:48;;;;;;;22.10;14.65;;;13.20;99.90;;;;;;5079328;28;20181;-82
2022/04/15 12:12:15;;;;;;;24.05;14.32;;;13.00;99.90;;;;;;5080421;28;20189;-81
2022/04/15 12:14:41;;;;;;;19.30;14.80;;;13.20;99.90;;;;;;5076693;28;20179;-82
2022/04/15 12:17:08;;;;;;;19.23;13.60;;;12.80;99.90;;;;;;5094998;28;20206;-81
2022/04/15 12:19:38;;;;;;;16.77;12.93;;;12.70;99.90;;;;;;5077493;28;20163;-82
2022/04/15 12:22:04;;;;;;;19.42;11.73;;;13.10;99.90;;;;;;5057988;28;20179;-83
2022/04/15 12:24:30;;;;;;;18.30;13.07;;;12.80;99.90;;;;;;5091574;28;20178;-81
2022/04/15 12:27:00;;;;;;;14.85;10.57;;;13.10;99.90;;;;;;5097962;28;20670;-82
2022/04/15 12:32:24;;;;;;;14.07;9.90;;;13.70;99.90;;;;;;5104041;28;20224;-83
2022/04/15 12:35:12;;;;;;;12.10;9.07;;;13.90;99.90;;;;;;5095705;28;20623;-82
2022/04/15 12:37:53;;;;;;;13.30;8.43;;;13.20;99.90;;;;;;5082999;28;20210;-83
2022/04/15 12:40:21;;;;;;;11.55;8.68;;;13.20;99.90;;;;;;5102210;28;20242;-84
2022/04/15 12:42:49;;;;;;;13.15;8.32;;;13.00;99.90;;;;;;5105438;28;20174;-82
2022/04/15 12:45:19;;;;;;;11.07;8.27;;;13.60;99.90;;;;;;5102473;28;20175;-81
2022/04/15 12:48:01;;;;;;;10.77;8.15;;;13.30;99.90;;;;;;5084576;28;20182;-83
2022/04/15 12:50:31;;;;;;;8.60;7.00;;;13.40;99.90;;;;;;5083156;28;20208;-81
2022/04/15 12:52:57;;;;;;;14.02;8.98;;;13.60;99.90;;;;;;5064370;28;20183;-81
2022/04/15 12:55:30;;;;;;;14.18;9.65;;;13.90;99.90;;;;;;5045208;28;20186;-80
2022/04/15 12:57:56;;;;;;;14.48;9.50;;;13.90;99.90;;;;;;5071892;28;20213;-80
2022/04/15 13:00:22;;;;;;;13.80;9.10;;;13.70;99.90;;;;;;5100983;28;20182;-81
2022/04/15 13:02:48;;;;;;;13.98;8.68;;;;;;;;;;5096185;28;20225;-82
2022/04/15 13:05:14;;;;;;;10.65;8.65;;;15.00;99.90;;;;;;5100238;28;20167;-81
2022/04/15 13:07:40;;;;;;;15.43;10.27;;;14.90;99.90;;;;;;5082449;28;20673;-81
2022/04/15 13:10:09;;;;;;;12.73;6.97;;;15.60;99.90;;;;;;5095913;28;20178;-82
2022/04/15 13:12:35;;;;;;;8.38;6.20;;;15.20;99.90;;;;;;5098549;28;20179;-81
2022/04/15 13:15:01;;;;;;;9.35;7.60;;;15.20;99.90;;;;;;5046461;28;20174;-82
2022/04/15 13:17:27;;;;;;;9.65;7.80;;;14.90;99.90;;;;;;5082101;28;20316;-80
2022/04/15 13:19:53;;;;;;;15.45;9.02;;;14.50;99.90;;;;;;5079105;28;20205;-81
2022/04/15 13:22:18;;;;;;;18.45;10.68;;;14.50;99.90;;;;;;5100146;28;20175;-83
2022/04/15 13:24:45;;;;;;;17.27;12.05;;;;;;;;;;5084083;28;20218;-80
2022/04/15 13:27:11;;;;;;;17.30;13.80;;;14.50;99.90;;;;;;5099851;28;20261;-82
2022/04/15 13:29:37;;;;;;;19.77;15.90;;;14.30;99.90;;;;;;5102743;28;20265;-81
2022/04/15 13:32:05;;;;;;;20.45;15.05;;;14.40;99.90;;;;;;5099056;28;20171;-81